sensor_id;sensor_type;location;lat;lon;timestamp;P1;durP1;ratioP1;P2;durP2;ratioP2
39452;SDS011;25154;-33.684;151.102;2023-03-16T00:03:57;4.95;;;1.92;;
39452;SDS011;25154;-33.684;151.102;2023-03-16T00:09:03;4.72;;;2.20;;
39452;SDS011;25154;-33.684;151.102;2023-03-16T00:19:20;5.63;;;2.00;;
39452;SDS011;25154;-33.684;151.102;2023-03-16T00:24:23;3.33;;;1.95;;
39452;SDS011;25154;-33.684;151.102;2023-03-16T00:29:28;3.85;;;2.05;;
39452;SDS011;25154;-33.684;151.102;2023-03-16T00:34:34;4.40;;;2.10;;
39452;SDS011;25154;-33.684;151.102;2023-03-16T00:39:37;3.63;;;1.92;;
39452;SDS011;25154;-33.684;151.102;2023-03-16T00:44:40;4.43;;;1.75;;
39452;SDS011;25154;-33.684;151.102;2023-03-16T00:49:43;4.25;;;1.88;;
39452;SDS011;25154;-33.684;151.102;2023-03-16T00:54:46;3.67;;;1.77;;
39452;SDS011;25154;-33.684;151.102;2023-03-16T00:59:52;3.40;;;1.58;;
39452;SDS011;25154;-33.684;151.102;2023-03-16T01:04:55;4.15;;;1.60;;
39452;SDS011;25154;-33.684;151.102;2023-03-16T01:09:58;5.20;;;1.70;;
39452;SDS011;25154;-33.684;151.102;2023-03-16T01:15:01;3.35;;;1.60;;
39452;SDS011;25154;-33.684;151.102;2023-03-16T01:20:04;4.43;;;1.73;;
39452;SDS011;25154;-33.684;151.102;2023-03-16T01:25:13;6.05;;;1.80;;
39452;SDS011;25154;-33.684;151.102;2023-03-16T01:30:15;3.42;;;1.58;;
39452;SDS011;25154;-33.684;151.102;2023-03-16T01:35:18;4.05;;;1.70;;
39452;SDS011;25154;-33.684;151.102;2023-03-16T01:40:21;4.55;;;1.50;;
39452;SDS011;25154;-33.684;151.102;2023-03-16T01:51:06;3.38;;;1.92;;
39452;SDS011;25154;-33.684;151.102;2023-03-16T01:56:28;2.90;;;1.70;;
39452;SDS011;25154;-33.684;151.102;2023-03-16T02:01:38;3.42;;;1.60;;
39452;SDS011;25154;-33.684;151.102;2023-03-16T02:06:41;3.03;;;1.48;;
39452;SDS011;25154;-33.684;151.102;2023-03-16T02:11:44;5.07;;;1.70;;
39452;SDS011;25154;-33.684;151.102;2023-03-16T02:16:47;3.38;;;1.38;;
39452;SDS011;25154;-33.684;151.102;2023-03-16T02:22:05;6.97;;;1.45;;
39452;SDS011;25154;-33.684;151.102;2023-03-16T02:27:16;3.15;;;1.40;;
39452;SDS011;25154;-33.684;151.102;2023-03-16T02:32:34;3.72;;;1.50;;
39452;SDS011;25154;-33.684;151.102;2023-03-16T02:37:39;3.78;;;1.40;;
39452;SDS011;25154;-33.684;151.102;2023-03-16T02:42:41;3.80;;;1.52;;
39452;SDS011;25154;-33.684;151.102;2023-03-16T02:47:44;4.38;;;1.25;;
39452;SDS011;25154;-33.684;151.102;2023-03-16T02:52:54;3.35;;;1.40;;
39452;SDS011;25154;-33.684;151.102;2023-03-16T02:57:57;3.17;;;1.33;;
39452;SDS011;25154;-33.684;151.102;2023-03-16T03:02:59;2.75;;;1.30;;
39452;SDS011;25154;-33.684;151.102;2023-03-16T03:08:03;6.82;;;1.70;;
39452;SDS011;25154;-33.684;151.102;2023-03-16T03:13:07;3.08;;;1.40;;
39452;SDS011;25154;-33.684;151.102;2023-03-16T03:18:13;1.77;;;1.00;;
39452;SDS011;25154;-33.684;151.102;2023-03-16T03:23:16;3.17;;;1.20;;
39452;SDS011;25154;-33.684;151.102;2023-03-16T03:28:22;2.72;;;1.17;;
39452;SDS011;25154;-33.684;151.102;2023-03-16T03:33:26;4.40;;;1.60;;
39452;SDS011;25154;-33.684;151.102;2023-03-16T03:38:29;3.35;;;1.30;;
39452;SDS011;25154;-33.684;151.102;2023-03-16T03:43:31;3.13;;;1.20;;
39452;SDS011;25154;-33.684;151.102;2023-03-16T03:48:34;3.72;;;1.48;;
39452;SDS011;25154;-33.684;151.102;2023-03-16T03:53:37;2.60;;;1.33;;
39452;SDS011;25154;-33.684;151.102;2023-03-16T03:58:40;1.90;;;1.15;;
39452;SDS011;25154;-33.684;151.102;2023-03-16T04:03:44;2.38;;;1.17;;
39452;SDS011;25154;-33.684;151.102;2023-03-16T04:08:46;2.67;;;1.30;;
39452;SDS011;25154;-33.684;151.102;2023-03-16T04:13:50;1.88;;;1.10;;
39452;SDS011;25154;-33.684;151.102;2023-03-16T04:18:53;5.30;;;1.67;;
39452;SDS011;25154;-33.684;151.102;2023-03-16T04:23:55;3.35;;;1.35;;
39452;SDS011;25154;-33.684;151.102;2023-03-16T04:28:58;4.20;;;1.55;;
39452;SDS011;25154;-33.684;151.102;2023-03-16T04:34:03;3.30;;;1.30;;
39452;SDS011;25154;-33.684;151.102;2023-03-16T04:39:05;4.75;;;1.20;;
39452;SDS011;25154;-33.684;151.102;2023-03-16T04:44:09;2.92;;;1.35;;
39452;SDS011;25154;-33.684;151.102;2023-03-16T04:49:12;4.15;;;1.42;;
39452;SDS011;25154;-33.684;151.102;2023-03-16T04:54:14;3.05;;;1.17;;
39452;SDS011;25154;-33.684;151.102;2023-03-16T04:59:18;3.75;;;1.10;;
39452;SDS011;25154;-33.684;151.102;2023-03-16T05:04:20;1.80;;;0.80;;
39452;SDS011;25154;-33.684;151.102;2023-03-16T05:09:24;4.55;;;0.90;;
39452;SDS011;25154;-33.684;151.102;2023-03-16T05:19:37;0.70;;;0.63;;
39452;SDS011;25154;-33.684;151.102;2023-03-16T05:24:40;4.32;;;0.80;;
39452;SDS011;25154;-33.684;151.102;2023-03-16T05:29:45;1.75;;;0.80;;
39452;SDS011;25154;-33.684;151.102;2023-03-16T05:34:48;2.65;;;0.93;;
39452;SDS011;25154;-33.684;151.102;2023-03-16T05:39:52;2.70;;;0.70;;
39452;SDS011;25154;-33.684;151.102;2023-03-16T05:44:57;1.10;;;0.70;;
39452;SDS011;25154;-33.684;151.102;2023-03-16T05:50:00;2.72;;;0.80;;
39452;SDS011;25154;-33.684;151.102;2023-03-16T05:55:07;2.22;;;0.80;;
39452;SDS011;25154;-33.684;151.102;2023-03-16T06:00:11;4.18;;;1.00;;
39452;SDS011;25154;-33.684;151.102;2023-03-16T06:05:16;2.45;;;0.80;;
39452;SDS011;25154;-33.684;151.102;2023-03-16T06:10:22;2.83;;;0.90;;
39452;SDS011;25154;-33.684;151.102;2023-03-16T06:15:26;1.55;;;0.80;;
39452;SDS011;25154;-33.684;151.102;2023-03-16T06:20:31;3.13;;;1.08;;
39452;SDS011;25154;-33.684;151.102;2023-03-16T06:25:38;2.83;;;0.70;;
39452;SDS011;25154;-33.684;151.102;2023-03-16T06:30:40;4.47;;;0.93;;
39452;SDS011;25154;-33.684;151.102;2023-03-16T06:35:43;1.77;;;0.88;;
39452;SDS011;25154;-33.684;151.102;2023-03-16T06:40:52;1.40;;;0.77;;
39452;SDS011;25154;-33.684;151.102;2023-03-16T06:45:56;2.20;;;0.90;;
39452;SDS011;25154;-33.684;151.102;2023-03-16T06:50:59;6.93;;;0.90;;
39452;SDS011;25154;-33.684;151.102;2023-03-16T06:56:01;1.13;;;0.70;;
39452;SDS011;25154;-33.684;151.102;2023-03-16T07:01:04;1.15;;;0.80;;
39452;SDS011;25154;-33.684;151.102;2023-03-16T07:06:06;1.40;;;0.80;;
39452;SDS011;25154;-33.684;151.102;2023-03-16T07:11:11;2.10;;;1.02;;
39452;SDS011;25154;-33.684;151.102;2023-03-16T07:16:14;2.15;;;0.82;;
39452;SDS011;25154;-33.684;151.102;2023-03-16T07:21:17;2.60;;;0.93;;
39452;SDS011;25154;-33.684;151.102;2023-03-16T07:26:19;3.17;;;0.80;;
39452;SDS011;25154;-33.684;151.102;2023-03-16T07:31:22;1.48;;;0.70;;
39452;SDS011;25154;-33.684;151.102;2023-03-16T07:36:25;2.60;;;0.80;;
39452;SDS011;25154;-33.684;151.102;2023-03-16T07:41:29;1.75;;;0.75;;
39452;SDS011;25154;-33.684;151.102;2023-03-16T07:46:31;4.47;;;1.00;;
39452;SDS011;25154;-33.684;151.102;2023-03-16T07:51:34;1.60;;;0.73;;
39452;SDS011;25154;-33.684;151.102;2023-03-16T07:56:36;1.35;;;0.80;;
39452;SDS011;25154;-33.684;151.102;2023-03-16T08:01:38;1.63;;;0.55;;
39452;SDS011;25154;-33.684;151.102;2023-03-16T08:06:41;2.60;;;0.75;;
39452;SDS011;25154;-33.684;151.102;2023-03-16T08:11:43;2.83;;;0.77;;
39452;SDS011;25154;-33.684;151.102;2023-03-16T08:16:46;1.73;;;0.70;;
39452;SDS011;25154;-33.684;151.102;2023-03-16T08:21:48;4.05;;;1.00;;
39452;SDS011;25154;-33.684;151.102;2023-03-16T08:26:50;5.93;;;2.70;;
39452;SDS011;25154;-33.684;151.102;2023-03-16T08:31:53;3.05;;;0.98;;
39452;SDS011;25154;-33.684;151.102;2023-03-16T08:36:58;3.38;;;1.10;;
39452;SDS011;25154;-33.684;151.102;2023-03-16T08:42:02;2.28;;;0.90;;
39452;SDS011;25154;-33.684;151.102;2023-03-16T08:47:07;3.20;;;1.00;;
39452;SDS011;25154;-33.684;151.102;2023-03-16T08:52:11;2.70;;;1.08;;
39452;SDS011;25154;-33.684;151.102;2023-03-16T08:57:15;3.95;;;1.45;;
39452;SDS011;25154;-33.684;151.102;2023-03-16T09:02:18;2.70;;;1.02;;
39452;SDS011;25154;-33.684;151.102;2023-03-16T09:07:22;1.20;;;0.77;;
39452;SDS011;25154;-33.684;151.102;2023-03-16T09:12:24;2.38;;;0.98;;
39452;SDS011;25154;-33.684;151.102;2023-03-16T09:23:46;6.03;;;1.20;;
39452;SDS011;25154;-33.684;151.102;2023-03-16T09:28:50;2.73;;;1.20;;
39452;SDS011;25154;-33.684;151.102;2023-03-16T09:33:54;2.45;;;1.00;;
39452;SDS011;25154;-33.684;151.102;2023-03-16T09:38:56;1.40;;;0.90;;
39452;SDS011;25154;-33.684;151.102;2023-03-16T09:49:02;4.63;;;1.00;;
39452;SDS011;25154;-33.684;151.102;2023-03-16T09:54:11;2.35;;;1.10;;
39452;SDS011;25154;-33.684;151.102;2023-03-16T09:59:25;4.15;;;1.30;;
39452;SDS011;25154;-33.684;151.102;2023-03-16T10:09:33;5.03;;;1.10;;
39452;SDS011;25154;-33.684;151.102;2023-03-16T10:15:03;5.63;;;1.20;;
39452;SDS011;25154;-33.684;151.102;2023-03-16T10:20:15;4.47;;;1.30;;
39452;SDS011;25154;-33.684;151.102;2023-03-16T10:25:26;5.75;;;1.23;;
39452;SDS011;25154;-33.684;151.102;2023-03-16T10:30:47;4.38;;;1.13;;
39452;SDS011;25154;-33.684;151.102;2023-03-16T10:46:16;0.70;;;0.60;;
39452;SDS011;25154;-33.684;151.102;2023-03-16T10:51:19;4.45;;;0.88;;
39452;SDS011;25154;-33.684;151.102;2023-03-16T10:56:30;2.67;;;0.80;;
39452;SDS011;25154;-33.684;151.102;2023-03-16T11:01:37;3.33;;;0.50;;
39452;SDS011;25154;-33.684;151.102;2023-03-16T11:06:47;4.63;;;1.27;;
39452;SDS011;25154;-33.684;151.102;2023-03-16T11:11:53;2.35;;;0.80;;
39452;SDS011;25154;-33.684;151.102;2023-03-16T11:17:09;1.55;;;0.60;;
39452;SDS011;25154;-33.684;151.102;2023-03-16T11:22:21;0.73;;;0.57;;
39452;SDS011;25154;-33.684;151.102;2023-03-16T11:32:50;2.10;;;0.60;;
39452;SDS011;25154;-33.684;151.102;2023-03-16T12:10:41;0.77;;;0.50;;
39452;SDS011;25154;-33.684;151.102;2023-03-16T12:15:54;1.48;;;0.50;;
39452;SDS011;25154;-33.684;151.102;2023-03-16T12:21:27;1.75;;;0.50;;
39452;SDS011;25154;-33.684;151.102;2023-03-16T12:26:35;5.20;;;0.60;;
39452;SDS011;25154;-33.684;151.102;2023-03-16T12:37:21;2.33;;;0.65;;
39452;SDS011;25154;-33.684;151.102;2023-03-16T12:59:22;1.00;;;0.55;;
39452;SDS011;25154;-33.684;151.102;2023-03-16T13:04:32;2.28;;;0.60;;
39452;SDS011;25154;-33.684;151.102;2023-03-16T13:09:45;2.42;;;0.70;;
39452;SDS011;25154;-33.684;151.102;2023-03-16T13:20:28;6.38;;;0.70;;
39452;SDS011;25154;-33.684;151.102;2023-03-16T13:31:21;1.65;;;0.70;;
39452;SDS011;25154;-33.684;151.102;2023-03-16T13:36:38;3.45;;;0.70;;
39452;SDS011;25154;-33.684;151.102;2023-03-16T13:41:53;2.25;;;0.50;;
39452;SDS011;25154;-33.684;151.102;2023-03-16T13:47:05;6.85;;;0.85;;
39452;SDS011;25154;-33.684;151.102;2023-03-16T13:52:14;2.17;;;0.60;;
39452;SDS011;25154;-33.684;151.102;2023-03-16T13:57:37;1.05;;;0.63;;
39452;SDS011;25154;-33.684;151.102;2023-03-16T14:02:49;2.03;;;0.68;;
39452;SDS011;25154;-33.684;151.102;2023-03-16T14:07:55;3.63;;;0.98;;
39452;SDS011;25154;-33.684;151.102;2023-03-16T14:13:08;0.93;;;0.50;;
39452;SDS011;25154;-33.684;151.102;2023-03-16T14:18:37;2.50;;;0.60;;
39452;SDS011;25154;-33.684;151.102;2023-03-16T14:23:44;2.20;;;0.93;;
39452;SDS011;25154;-33.684;151.102;2023-03-16T14:34:18;1.58;;;0.68;;
39452;SDS011;25154;-33.684;151.102;2023-03-16T14:39:22;3.38;;;0.88;;
39452;SDS011;25154;-33.684;151.102;2023-03-16T14:44:30;1.77;;;0.60;;
39452;SDS011;25154;-33.684;151.102;2023-03-16T14:49:36;4.35;;;0.60;;
39452;SDS011;25154;-33.684;151.102;2023-03-16T14:54:40;2.47;;;0.90;;
39452;SDS011;25154;-33.684;151.102;2023-03-16T14:59:46;4.03;;;0.70;;
39452;SDS011;25154;-33.684;151.102;2023-03-16T15:04:51;1.40;;;0.60;;
39452;SDS011;25154;-33.684;151.102;2023-03-16T15:10:20;4.18;;;0.70;;
39452;SDS011;25154;-33.684;151.102;2023-03-16T15:15:26;2.38;;;0.60;;
39452;SDS011;25154;-33.684;151.102;2023-03-16T15:20:33;1.70;;;0.70;;
39452;SDS011;25154;-33.684;151.102;2023-03-16T15:25:41;1.63;;;0.70;;
39452;SDS011;25154;-33.684;151.102;2023-03-16T15:30:55;3.80;;;0.88;;
39452;SDS011;25154;-33.684;151.102;2023-03-16T15:36:00;3.58;;;0.77;;
39452;SDS011;25154;-33.684;151.102;2023-03-16T15:41:11;1.58;;;0.60;;
39452;SDS011;25154;-33.684;151.102;2023-03-16T15:46:14;1.88;;;0.60;;
39452;SDS011;25154;-33.684;151.102;2023-03-16T15:51:22;0.70;;;0.50;;
39452;SDS011;25154;-33.684;151.102;2023-03-16T15:56:31;1.95;;;0.70;;
39452;SDS011;25154;-33.684;151.102;2023-03-16T16:01:45;2.70;;;0.73;;
39452;SDS011;25154;-33.684;151.102;2023-03-16T16:06:48;5.95;;;0.70;;
39452;SDS011;25154;-33.684;151.102;2023-03-16T16:11:54;4.90;;;0.70;;
39452;SDS011;25154;-33.684;151.102;2023-03-16T16:16:57;3.20;;;0.75;;
39452;SDS011;25154;-33.684;151.102;2023-03-16T16:21:59;1.15;;;0.60;;
39452;SDS011;25154;-33.684;151.102;2023-03-16T16:27:01;5.03;;;0.70;;
39452;SDS011;25154;-33.684;151.102;2023-03-16T16:32:21;3.35;;;0.70;;
39452;SDS011;25154;-33.684;151.102;2023-03-16T16:37:24;6.03;;;0.90;;
39452;SDS011;25154;-33.684;151.102;2023-03-16T16:42:27;4.47;;;0.82;;
39452;SDS011;25154;-33.684;151.102;2023-03-16T16:47:29;4.80;;;0.75;;
39452;SDS011;25154;-33.684;151.102;2023-03-16T16:52:31;2.65;;;0.85;;
39452;SDS011;25154;-33.684;151.102;2023-03-16T16:57:34;1.95;;;0.70;;
39452;SDS011;25154;-33.684;151.102;2023-03-16T17:02:49;2.80;;;0.77;;
39452;SDS011;25154;-33.684;151.102;2023-03-16T17:12:55;1.25;;;0.70;;
39452;SDS011;25154;-33.684;151.102;2023-03-16T17:18:02;1.15;;;0.52;;
39452;SDS011;25154;-33.684;151.102;2023-03-16T17:28:27;1.80;;;0.70;;
39452;SDS011;25154;-33.684;151.102;2023-03-16T17:33:33;4.23;;;0.63;;
39452;SDS011;25154;-33.684;151.102;2023-03-16T17:38:35;3.03;;;0.63;;
39452;SDS011;25154;-33.684;151.102;2023-03-16T17:43:38;1.13;;;0.70;;
39452;SDS011;25154;-33.684;151.102;2023-03-16T17:48:40;1.23;;;0.47;;
39452;SDS011;25154;-33.684;151.102;2023-03-16T17:53:43;3.00;;;0.55;;
39452;SDS011;25154;-33.684;151.102;2023-03-16T17:58:49;1.70;;;0.60;;
39452;SDS011;25154;-33.684;151.102;2023-03-16T18:03:56;4.60;;;0.60;;
39452;SDS011;25154;-33.684;151.102;2023-03-16T18:08:58;5.30;;;0.80;;
39452;SDS011;25154;-33.684;151.102;2023-03-16T18:14:01;1.30;;;0.47;;
39452;SDS011;25154;-33.684;151.102;2023-03-16T18:19:10;3.60;;;1.25;;
39452;SDS011;25154;-33.684;151.102;2023-03-16T18:24:26;2.08;;;0.70;;
39452;SDS011;25154;-33.684;151.102;2023-03-16T18:29:29;3.85;;;0.55;;
39452;SDS011;25154;-33.684;151.102;2023-03-16T18:34:32;2.47;;;0.80;;
39452;SDS011;25154;-33.684;151.102;2023-03-16T18:39:35;2.28;;;0.60;;
39452;SDS011;25154;-33.684;151.102;2023-03-16T18:44:38;2.10;;;0.65;;
39452;SDS011;25154;-33.684;151.102;2023-03-16T18:49:40;0.82;;;0.43;;
39452;SDS011;25154;-33.684;151.102;2023-03-16T18:54:46;5.35;;;0.70;;
39452;SDS011;25154;-33.684;151.102;2023-03-16T18:59:49;0.55;;;0.50;;
39452;SDS011;25154;-33.684;151.102;2023-03-16T19:04:51;0.82;;;0.50;;
39452;SDS011;25154;-33.684;151.102;2023-03-16T19:09:55;2.03;;;0.93;;
39452;SDS011;25154;-33.684;151.102;2023-03-16T19:14:58;2.33;;;0.68;;
39452;SDS011;25154;-33.684;151.102;2023-03-16T19:20:01;1.60;;;0.50;;
39452;SDS011;25154;-33.684;151.102;2023-03-16T19:25:04;2.25;;;0.50;;
39452;SDS011;25154;-33.684;151.102;2023-03-16T19:30:13;1.38;;;0.50;;
39452;SDS011;25154;-33.684;151.102;2023-03-16T19:35:29;2.97;;;0.50;;
39452;SDS011;25154;-33.684;151.102;2023-03-16T19:40:31;0.95;;;0.50;;
39452;SDS011;25154;-33.684;151.102;2023-03-16T19:45:34;2.45;;;0.63;;
39452;SDS011;25154;-33.684;151.102;2023-03-16T19:50:38;0.90;;;0.70;;
39452;SDS011;25154;-33.684;151.102;2023-03-16T19:55:40;1.95;;;0.75;;
39452;SDS011;25154;-33.684;151.102;2023-03-16T20:00:46;2.67;;;0.70;;
39452;SDS011;25154;-33.684;151.102;2023-03-16T20:05:50;0.50;;;0.47;;
39452;SDS011;25154;-33.684;151.102;2023-03-16T20:10:53;1.50;;;0.63;;
39452;SDS011;25154;-33.684;151.102;2023-03-16T20:16:02;2.55;;;0.60;;
39452;SDS011;25154;-33.684;151.102;2023-03-16T20:21:06;0.77;;;0.45;;
39452;SDS011;25154;-33.684;151.102;2023-03-16T20:26:14;5.38;;;0.80;;
39452;SDS011;25154;-33.684;151.102;2023-03-16T20:31:21;1.55;;;0.93;;
39452;SDS011;25154;-33.684;151.102;2023-03-16T20:36:26;1.10;;;0.60;;
39452;SDS011;25154;-33.684;151.102;2023-03-16T20:41:29;3.58;;;0.73;;
39452;SDS011;25154;-33.684;151.102;2023-03-16T20:46:38;3.97;;;0.90;;
39452;SDS011;25154;-33.684;151.102;2023-03-16T20:51:44;6.40;;;0.90;;
39452;SDS011;25154;-33.684;151.102;2023-03-16T20:56:49;3.55;;;1.02;;
39452;SDS011;25154;-33.684;151.102;2023-03-16T21:01:54;2.92;;;0.70;;
39452;SDS011;25154;-33.684;151.102;2023-03-16T21:06:57;3.03;;;0.80;;
39452;SDS011;25154;-33.684;151.102;2023-03-16T21:12:00;3.70;;;0.82;;
39452;SDS011;25154;-33.684;151.102;2023-03-16T21:17:04;3.38;;;1.00;;
39452;SDS011;25154;-33.684;151.102;2023-03-16T21:22:33;2.75;;;0.80;;
39452;SDS011;25154;-33.684;151.102;2023-03-16T21:27:37;3.30;;;0.93;;
39452;SDS011;25154;-33.684;151.102;2023-03-16T21:32:39;5.00;;;1.20;;
39452;SDS011;25154;-33.684;151.102;2023-03-16T21:37:42;5.95;;;1.33;;
39452;SDS011;25154;-33.684;151.102;2023-03-16T21:42:45;6.60;;;1.20;;
39452;SDS011;25154;-33.684;151.102;2023-03-16T21:47:49;4.80;;;1.25;;
39452;SDS011;25154;-33.684;151.102;2023-03-16T21:52:51;3.13;;;1.00;;
39452;SDS011;25154;-33.684;151.102;2023-03-16T21:57:54;3.97;;;0.90;;
39452;SDS011;25154;-33.684;151.102;2023-03-16T22:03:00;4.28;;;0.77;;
39452;SDS011;25154;-33.684;151.102;2023-03-16T22:08:12;4.78;;;1.02;;
39452;SDS011;25154;-33.684;151.102;2023-03-16T22:13:18;4.28;;;1.05;;
39452;SDS011;25154;-33.684;151.102;2023-03-16T22:18:35;6.63;;;1.05;;
39452;SDS011;25154;-33.684;151.102;2023-03-16T22:23:38;1.92;;;0.88;;
39452;SDS011;25154;-33.684;151.102;2023-03-16T22:28:41;2.92;;;1.05;;
39452;SDS011;25154;-33.684;151.102;2023-03-16T22:33:44;3.40;;;1.02;;
39452;SDS011;25154;-33.684;151.102;2023-03-16T22:38:54;7.68;;;1.48;;
39452;SDS011;25154;-33.684;151.102;2023-03-16T22:44:12;6.35;;;1.10;;
39452;SDS011;25154;-33.684;151.102;2023-03-16T22:49:22;2.67;;;1.10;;
39452;SDS011;25154;-33.684;151.102;2023-03-16T22:54:28;4.63;;;1.00;;
39452;SDS011;25154;-33.684;151.102;2023-03-16T22:59:31;2.35;;;1.00;;
39452;SDS011;25154;-33.684;151.102;2023-03-16T23:04:35;2.15;;;1.00;;
39452;SDS011;25154;-33.684;151.102;2023-03-16T23:09:38;3.25;;;1.30;;
39452;SDS011;25154;-33.684;151.102;2023-03-16T23:14:41;2.80;;;1.00;;
39452;SDS011;25154;-33.684;151.102;2023-03-16T23:19:44;3.45;;;0.90;;
39452;SDS011;25154;-33.684;151.102;2023-03-16T23:24:48;2.90;;;0.90;;
39452;SDS011;25154;-33.684;151.102;2023-03-16T23:29:51;2.38;;;0.90;;
39452;SDS011;25154;-33.684;151.102;2023-03-16T23:34:54;7.20;;;1.75;;
39452;SDS011;25154;-33.684;151.102;2023-03-16T23:40:02;4.87;;;1.20;;
39452;SDS011;25154;-33.684;151.102;2023-03-16T23:50:17;4.00;;;1.10;;
39452;SDS011;25154;-33.684;151.102;2023-03-16T23:55:24;3.92;;;1.20;;
